Oakwood, Oklahoma
Current Conditions -  °F | °C
As of 2:35 AM on Thursday 27 Nov 2014 (Local Time) from KJWG Reporting Station
Clear Clear  
Wind Chill: 21°   Ceiling: Unl
Heat Index: 26°   Visibility: 10mi
Dew Point: 24°   Wind: 5mph
Humidity: 90%   Direction: 350°N
Pressure: 30.5"   Gusts: NA
Location:  35.93°N, 98.71°W
Report Text: KJWG 270835Z AUTO 35004KT 10SM CLR M03/M05 A3050 RMK AO2 T10311046
Loading
Personal Weather Stations






























Interactive Weather Map New forecast layout! Learn more

10-Day Weather Forecast

Advertisements
Track Severe Weather on mobile